Criccieth, United Kingdom
Current Conditions -  °F | °C
As of 1:50 PM on Tuesday 21 Oct 2014 (Local Time) from EGOV Reporting Station
Scattered Clouds Scattered Clouds  
Wind Chill: 11°   Ceiling: Unl
Heat Index: 11°   Visibility: 6mi
Dew Point:   Wind: 36mph
Humidity: 62%   Direction: 300°WNW
Pressure: 29.83"   Gusts: 49mph
Location:  52.92°N, 4.23°W
Report Text: EGOV 211250Z 30031G43KT 9999 SCT035 11/04 Q1010 BLU NOSIG
Loading
Personal Weather Stations






























Interactive Weather Map
Tropical Storm Tracking
New forecast layout! Learn more

10-Day Weather Forecast

Advertisements
Track Severe Weather on mobile